sensor_id;sensor_type;location;lat;lon;timestamp;pressure;altitude;pressure_sealevel;temperature;humidity
81608;BME280;71022;48.122;11.576;2023-10-13T00:02:02;95768.09;;;19.10;43.53
81608;BME280;71022;48.122;11.576;2023-10-13T00:04:33;95763.34;;;19.04;43.79
81608;BME280;71022;48.122;11.576;2023-10-13T00:07:03;95759.72;;;19.10;43.74
81608;BME280;71022;48.122;11.576;2023-10-13T00:09:31;95758.94;;;19.06;43.51
81608;BME280;71022;48.122;11.576;2023-10-13T00:12:06;95756.16;;;19.10;43.53
81608;BME280;71022;48.122;11.576;2023-10-13T00:14:41;95767.66;;;19.15;44.45
81608;BME280;71022;48.122;11.576;2023-10-13T00:17:11;95772.78;;;19.20;43.99
81608;BME280;71022;48.122;11.576;2023-10-13T00:19:47;95770.00;;;19.24;43.90
81608;BME280;71022;48.122;11.576;2023-10-13T00:22:19;95772.78;;;19.27;43.82
81608;BME280;71022;48.122;11.576;2023-10-13T00:24:47;95765.66;;;19.23;44.22
81608;BME280;71022;48.122;11.576;2023-10-13T00:27:17;95764.50;;;19.13;45.23
81608;BME280;71022;48.122;11.576;2023-10-13T00:30:03;95772.41;;;19.18;45.20
81608;BME280;71022;48.122;11.576;2023-10-13T00:32:52;95750.59;;;19.10;45.72
81608;BME280;71022;48.122;11.576;2023-10-13T00:35:25;95762.09;;;19.15;45.30
81608;BME280;71022;48.122;11.576;2023-10-13T00:37:56;95762.50;;;19.17;45.19
81608;BME280;71022;48.122;11.576;2023-10-13T00:40:32;95761.72;;;19.13;45.33
81608;BME280;71022;48.122;11.576;2023-10-13T00:43:00;95745.00;;;19.13;45.11
81608;BME280;71022;48.122;11.576;2023-10-13T00:45:50;95760.91;;;19.16;45.55
81608;BME280;71022;48.122;11.576;2023-10-13T00:48:27;95758.88;;;19.20;45.28
81608;BME280;71022;48.122;11.576;2023-10-13T00:51:05;95757.31;;;19.19;45.27
81608;BME280;71022;48.122;11.576;2023-10-13T00:53:45;95764.06;;;19.22;45.53
81608;BME280;71022;48.122;11.576;2023-10-13T00:56:15;95763.25;;;19.21;44.87
81608;BME280;71022;48.122;11.576;2023-10-13T00:58:54;95761.66;;;19.20;44.96
81608;BME280;71022;48.122;11.576;2023-10-13T01:01:26;95760.91;;;19.16;45.51
81608;BME280;71022;48.122;11.576;2023-10-13T01:04:00;95758.56;;;19.04;45.54
81608;BME280;71022;48.122;11.576;2023-10-13T01:06:30;95757.75;;;19.04;46.20
81608;BME280;71022;48.122;11.576;2023-10-13T01:11:25;95770.06;;;19.06;45.78
81608;BME280;71022;48.122;11.576;2023-10-13T01:13:56;95753.81;;;18.91;46.62
81608;BME280;71022;48.122;11.576;2023-10-13T01:16:24;95754.66;;;18.84;47.08
81608;BME280;71022;48.122;11.576;2023-10-13T01:18:54;95757.81;;;18.90;46.44
81608;BME280;71022;48.122;11.576;2023-10-13T01:21:26;95755.44;;;18.85;46.78
81608;BME280;71022;48.122;11.576;2023-10-13T01:23:55;95752.66;;;18.88;47.45
81608;BME280;71022;48.122;11.576;2023-10-13T01:26:22;95747.56;;;18.69;47.07
81608;BME280;71022;48.122;11.576;2023-10-13T01:28:58;95755.53;;;18.60;47.04
81608;BME280;71022;48.122;11.576;2023-10-13T01:31:26;95746.78;;;18.44;47.30
81608;BME280;71022;48.122;11.576;2023-10-13T01:33:57;95751.56;;;18.40;46.82
81608;BME280;71022;48.122;11.576;2023-10-13T01:36:28;95737.28;;;18.27;46.89
81608;BME280;71022;48.122;11.576;2023-10-13T01:38:56;95746.03;;;18.33;47.17
81608;BME280;71022;48.122;11.576;2023-10-13T01:41:24;95751.97;;;18.35;47.73
81608;BME280;71022;48.122;11.576;2023-10-13T01:44:00;95746.81;;;18.33;47.36
81608;BME280;71022;48.122;11.576;2023-10-13T01:46:34;95741.25;;;18.33;47.70
81608;BME280;71022;48.122;11.576;2023-10-13T01:49:40;95753.19;;;18.30;48.67
81608;BME280;71022;48.122;11.576;2023-10-13T01:56:08;95758.72;;;18.16;48.87
81608;BME280;71022;48.122;11.576;2023-10-13T01:58:44;95759.94;;;18.18;48.69
81608;BME280;71022;48.122;11.576;2023-10-13T02:01:20;95757.94;;;18.08;48.54
81608;BME280;71022;48.122;11.576;2023-10-13T02:03:55;95756.34;;;18.07;49.05
81608;BME280;71022;48.122;11.576;2023-10-13T02:06:34;95755.59;;;18.03;49.01
81608;BME280;71022;48.122;11.576;2023-10-13T02:09:08;95752.41;;;17.98;48.83
81608;BME280;71022;48.122;11.576;2023-10-13T02:11:49;95754.75;;;17.92;49.17
81608;BME280;71022;48.122;11.576;2023-10-13T02:14:24;95756.38;;;17.83;48.93
81608;BME280;71022;48.122;11.576;2023-10-13T02:16:55;95751.59;;;17.80;49.31
81608;BME280;71022;48.122;11.576;2023-10-13T02:19:51;95764.31;;;17.84;49.07
81608;BME280;71022;48.122;11.576;2023-10-13T02:22:23;95753.16;;;17.77;49.35
81608;BME280;71022;48.122;11.576;2023-10-13T02:24:57;95756.75;;;17.81;49.50
81608;BME280;71022;48.122;11.576;2023-10-13T02:27:29;95753.19;;;17.70;48.58
81608;BME280;71022;48.122;11.576;2023-10-13T02:30:00;95746.84;;;17.59;48.54
81608;BME280;71022;48.122;11.576;2023-10-13T02:32:32;95752.28;;;17.41;48.83
81608;BME280;71022;48.122;11.576;2023-10-13T02:35:33;95749.91;;;17.33;48.92
81608;BME280;71022;48.122;11.576;2023-10-13T02:38:14;95747.53;;;17.35;48.80
81608;BME280;71022;48.122;11.576;2023-10-13T02:41:09;95738.78;;;17.26;48.77
81608;BME280;71022;48.122;11.576;2023-10-13T02:43:38;95747.09;;;17.19;49.31
81608;BME280;71022;48.122;11.576;2023-10-13T02:46:10;95749.84;;;17.08;49.63
81608;BME280;71022;48.122;11.576;2023-10-13T02:48:43;95742.69;;;17.03;49.78
81608;BME280;71022;48.122;11.576;2023-10-13T02:51:13;95750.63;;;17.05;50.09
81608;BME280;71022;48.122;11.576;2023-10-13T02:53:47;95753.03;;;17.13;49.52
81608;BME280;71022;48.122;11.576;2023-10-13T02:56:21;95746.25;;;17.00;49.92
81608;BME280;71022;48.122;11.576;2023-10-13T02:58:49;95744.25;;;16.97;50.04
81608;BME280;71022;48.122;11.576;2023-10-13T03:01:20;95744.16;;;16.76;50.63
81608;BME280;71022;48.122;11.576;2023-10-13T03:04:03;95745.72;;;16.70;50.67
81608;BME280;71022;48.122;11.576;2023-10-13T03:06:31;95743.72;;;16.67;51.04
81608;BME280;71022;48.122;11.576;2023-10-13T03:09:05;95733.03;;;16.66;50.90
81608;BME280;71022;48.122;11.576;2023-10-13T03:11:50;95735.44;;;16.74;50.54
81608;BME280;71022;48.122;11.576;2023-10-13T03:14:20;95745.72;;;16.70;50.99
81608;BME280;71022;48.122;11.576;2023-10-13T03:17:01;95736.59;;;16.63;50.93
81608;BME280;71022;48.122;11.576;2023-10-13T03:19:33;95737.81;;;16.72;50.69
81608;BME280;71022;48.122;11.576;2023-10-13T03:22:09;95741.78;;;16.71;50.46
81608;BME280;71022;48.122;11.576;2023-10-13T03:24:40;95730.63;;;16.57;51.20
81608;BME280;71022;48.122;11.576;2023-10-13T03:27:23;95736.56;;;16.59;50.91
81608;BME280;71022;48.122;11.576;2023-10-13T03:29:56;95734.47;;;16.42;51.80
81608;BME280;71022;48.122;11.576;2023-10-13T03:32:30;95737.63;;;16.44;50.96
81608;BME280;71022;48.122;11.576;2023-10-13T03:35:04;95736.84;;;16.47;50.73
81608;BME280;71022;48.122;11.576;2023-10-13T03:37:43;95732.41;;;16.32;51.27
81608;BME280;71022;48.122;11.576;2023-10-13T03:40:15;95741.94;;;16.38;51.03
81608;BME280;71022;48.122;11.576;2023-10-13T03:42:49;95728.00;;;16.24;52.46
81608;BME280;71022;48.122;11.576;2023-10-13T03:45:28;95732.38;;;16.28;51.51
81608;BME280;71022;48.122;11.576;2023-10-13T03:51:12;95721.66;;;16.20;51.34
81608;BME280;71022;48.122;11.576;2023-10-13T03:53:46;95720.03;;;16.12;51.28
81608;BME280;71022;48.122;11.576;2023-10-13T03:56:27;95716.88;;;16.17;51.25
81608;BME280;71022;48.122;11.576;2023-10-13T03:59:09;95730.34;;;16.18;51.03
81608;BME280;71022;48.122;11.576;2023-10-13T04:02:09;95727.09;;;16.05;52.30
81608;BME280;71022;48.122;11.576;2023-10-13T04:05:00;95732.66;;;16.09;51.91
81608;BME280;71022;48.122;11.576;2023-10-13T04:08:06;95735.97;;;16.29;51.11
81608;BME280;71022;48.122;11.576;2023-10-13T04:10:54;95733.22;;;16.32;51.20
81608;BME280;71022;48.122;11.576;2023-10-13T04:13:50;95728.00;;;16.24;51.22
81608;BME280;71022;48.122;11.576;2023-10-13T04:16:55;95725.63;;;16.19;51.31
81608;BME280;71022;48.122;11.576;2023-10-13T04:19:45;95724.03;;;16.25;51.41
81608;BME280;71022;48.122;11.576;2023-10-13T04:22:43;95720.94;;;16.33;50.73
81608;BME280;71022;48.122;11.576;2023-10-13T04:25:20;95720.06;;;16.22;50.87
81608;BME280;71022;48.122;11.576;2023-10-13T04:28:22;95715.25;;;16.09;51.34
81608;BME280;71022;48.122;11.576;2023-10-13T04:31:22;95716.00;;;16.02;51.60
81608;BME280;71022;48.122;11.576;2023-10-13T04:34:14;95709.59;;;15.91;51.82
81608;BME280;71022;48.122;11.576;2023-10-13T04:36:48;95719.78;;;15.76;52.80
81608;BME280;71022;48.122;11.576;2023-10-13T04:39:23;95704.53;;;15.56;53.16
81608;BME280;71022;48.122;11.576;2023-10-13T04:41:56;95713.41;;;15.72;53.07
81608;BME280;71022;48.122;11.576;2023-10-13T04:44:27;95706.25;;;15.71;52.59
81608;BME280;71022;48.122;11.576;2023-10-13T04:46:59;95701.56;;;15.75;53.09
81608;BME280;71022;48.122;11.576;2023-10-13T04:49:31;95711.09;;;15.81;52.30
81608;BME280;71022;48.122;11.576;2023-10-13T04:52:07;95702.47;;;15.93;52.38
81608;BME280;71022;48.122;11.576;2023-10-13T04:54:43;95708.09;;;16.08;51.64
81608;BME280;71022;48.122;11.576;2023-10-13T04:57:26;95703.34;;;16.04;51.27
81608;BME280;71022;48.122;11.576;2023-10-13T05:00:09;95712.84;;;16.03;51.11
81608;BME280;71022;48.122;11.576;2023-10-13T05:02:51;95707.31;;;16.07;52.16
81608;BME280;71022;48.122;11.576;2023-10-13T05:05:37;95701.00;;;16.07;51.23
81608;BME280;71022;48.122;11.576;2023-10-13T05:08:23;95704.09;;;16.01;51.23
81608;BME280;71022;48.122;11.576;2023-10-13T05:11:10;95695.38;;;15.96;51.63
81608;BME280;71022;48.122;11.576;2023-10-13T05:13:59;95700.16;;;16.02;50.94
81608;BME280;71022;48.122;11.576;2023-10-13T05:16:55;95699.44;;;16.13;50.58
81608;BME280;71022;48.122;11.576;2023-10-13T05:19:47;95699.19;;;15.77;50.80
81608;BME280;71022;48.122;11.576;2023-10-13T05:22:44;95696.88;;;15.86;51.64
81608;BME280;71022;48.122;11.576;2023-10-13T05:25:49;95697.31;;;15.88;52.66
81608;BME280;71022;48.122;11.576;2023-10-13T05:28:50;95701.66;;;15.89;52.40
81608;BME280;71022;48.122;11.576;2023-10-13T05:32:00;95702.47;;;15.93;51.94
81608;BME280;71022;48.122;11.576;2023-10-13T05:34:53;95711.25;;;16.02;50.79
81608;BME280;71022;48.122;11.576;2023-10-13T05:37:45;95704.88;;;15.98;50.97
81608;BME280;71022;48.122;11.576;2023-10-13T05:41:03;95697.69;;;15.87;51.53
81608;BME280;71022;48.122;11.576;2023-10-13T05:43:57;95722.22;;;15.88;51.26
81608;BME280;71022;48.122;11.576;2023-10-13T05:46:51;95715.16;;;15.98;50.76
81608;BME280;71022;48.122;11.576;2023-10-13T05:49:54;95718.56;;;15.77;51.85
81608;BME280;71022;48.122;11.576;2023-10-13T05:56:17;95723.47;;;15.94;51.10
81608;BME280;71022;48.122;11.576;2023-10-13T06:02:57;95716.69;;;15.88;51.26
81608;BME280;71022;48.122;11.576;2023-10-13T06:06:14;95717.56;;;15.99;52.00
81608;BME280;71022;48.122;11.576;2023-10-13T06:09:51;95725.94;;;16.10;51.70
81608;BME280;71022;48.122;11.576;2023-10-13T06:12:51;95719.31;;;16.22;50.78
81608;BME280;71022;48.122;11.576;2023-10-13T06:15:45;95738.34;;;16.34;49.98
81608;BME280;71022;48.122;11.576;2023-10-13T06:18:42;95741.56;;;16.36;49.89
81608;BME280;71022;48.122;11.576;2023-10-13T06:21:35;95736.03;;;16.43;49.80
81608;BME280;71022;48.122;11.576;2023-10-13T06:24:50;95744.06;;;16.55;49.69
81608;BME280;71022;48.122;11.576;2023-10-13T06:27:55;95736.94;;;16.54;49.11
81608;BME280;71022;48.122;11.576;2023-10-13T06:31:06;95728.22;;;16.55;49.42
81608;BME280;71022;48.122;11.576;2023-10-13T06:33:41;95733.25;;;16.36;49.27
81608;BME280;71022;48.122;11.576;2023-10-13T06:36:29;95732.88;;;16.41;49.90
81608;BME280;71022;48.122;11.576;2023-10-13T06:39:24;95731.38;;;16.54;50.07
81608;BME280;71022;48.122;11.576;2023-10-13T06:42:06;95725.09;;;16.61;49.75
81608;BME280;71022;48.122;11.576;2023-10-13T06:44:33;95734.19;;;16.65;49.82
81608;BME280;71022;48.122;11.576;2023-10-13T06:54:00;95741.78;;;16.71;48.47
81608;BME280;71022;48.122;11.576;2023-10-13T06:57:01;95740.28;;;16.98;48.27
81608;BME280;71022;48.122;11.576;2023-10-13T06:59:33;95737.16;;;17.10;48.12
81608;BME280;71022;48.122;11.576;2023-10-13T07:02:07;95747.53;;;17.28;47.58
81608;BME280;71022;48.122;11.576;2023-10-13T07:05:30;95743.56;;;17.39;47.37
81608;BME280;71022;48.122;11.576;2023-10-13T07:08:37;95745.16;;;17.47;46.46
81608;BME280;71022;48.122;11.576;2023-10-13T07:11:12;95746.03;;;17.69;46.80
81608;BME280;71022;48.122;11.576;2023-10-13T07:14:08;95734.84;;;18.64;44.58
81608;BME280;71022;48.122;11.576;2023-10-13T07:16:59;95750.22;;;19.77;42.03
81608;BME280;71022;48.122;11.576;2023-10-13T07:19:27;95737.59;;;20.58;39.81
81608;BME280;71022;48.122;11.576;2023-10-13T07:21:59;95752.34;;;21.29;37.44
81608;BME280;71022;48.122;11.576;2023-10-13T07:24:26;95742.91;;;22.03;36.11
81608;BME280;71022;48.122;11.576;2023-10-13T07:27:05;95730.00;;;22.33;35.08
81608;BME280;71022;48.122;11.576;2023-10-13T07:29:42;95742.53;;;22.71;34.30
81608;BME280;71022;48.122;11.576;2023-10-13T07:32:10;95739.41;;;22.89;34.23
81608;BME280;71022;48.122;11.576;2023-10-13T07:34:45;95742.41;;;22.98;34.03
81608;BME280;71022;48.122;11.576;2023-10-13T07:38:23;95733.94;;;23.01;33.93
81608;BME280;71022;48.122;11.576;2023-10-13T07:45:09;95741.19;;;24.10;32.28
81608;BME280;71022;48.122;11.576;2023-10-13T07:52:09;95734.00;;;25.02;30.39
81608;BME280;71022;48.122;11.576;2023-10-13T07:55:54;95733.25;;;24.86;30.89
81608;BME280;71022;48.122;11.576;2023-10-13T08:02:27;95728.66;;;25.49;29.22
81608;BME280;71022;48.122;11.576;2023-10-13T08:05:18;95737.63;;;25.44;29.12
81608;BME280;71022;48.122;11.576;2023-10-13T08:07:57;95725.41;;;25.22;30.21
81608;BME280;71022;48.122;11.576;2023-10-13T08:10:24;95726.25;;;25.48;29.75
81608;BME280;71022;48.122;11.576;2023-10-13T08:12:57;95728.09;;;25.54;29.35
81608;BME280;71022;48.122;11.576;2023-10-13T08:15:26;95730.94;;;25.79;29.10
81608;BME280;71022;48.122;11.576;2023-10-13T08:17:59;95724.06;;;25.93;29.03
81608;BME280;71022;48.122;11.576;2023-10-13T08:20:44;95730.94;;;26.05;29.73
81608;BME280;71022;48.122;11.576;2023-10-13T08:23:12;95725.06;;;26.50;28.75
81608;BME280;71022;48.122;11.576;2023-10-13T08:25:47;95727.03;;;26.74;27.82
81608;BME280;71022;48.122;11.576;2023-10-13T08:28:49;95732.06;;;26.92;29.35
81608;BME280;71022;48.122;11.576;2023-10-13T08:31:24;95725.78;;;27.10;28.13
81608;BME280;71022;48.122;11.576;2023-10-13T08:33:53;95733.88;;;27.42;27.74
81608;BME280;71022;48.122;11.576;2023-10-13T08:36:33;95725.91;;;26.84;28.27
81608;BME280;71022;48.122;11.576;2023-10-13T08:39:04;95720.97;;;26.63;28.75
81608;BME280;71022;48.122;11.576;2023-10-13T08:41:52;95723.09;;;26.84;28.09
81608;BME280;71022;48.122;11.576;2023-10-13T08:44:29;95718.34;;;26.69;28.18
81608;BME280;71022;48.122;11.576;2023-10-13T08:47:03;95724.88;;;26.78;28.78
81608;BME280;71022;48.122;11.576;2023-10-13T08:49:32;95722.31;;;27.06;27.93
81608;BME280;71022;48.122;11.576;2023-10-13T08:52:09;95723.94;;;26.94;28.00
81608;BME280;71022;48.122;11.576;2023-10-13T08:54:57;95726.13;;;26.30;28.68
81608;BME280;71022;48.122;11.576;2023-10-13T08:57:59;95719.66;;;26.55;28.87
81608;BME280;71022;48.122;11.576;2023-10-13T09:00:45;95719.09;;;26.48;28.54
81608;BME280;71022;48.122;11.576;2023-10-13T09:03:44;95715.56;;;26.56;29.03
81608;BME280;71022;48.122;11.576;2023-10-13T09:06:19;95709.28;;;26.52;28.35
81608;BME280;71022;48.122;11.576;2023-10-13T09:08:46;95710.72;;;26.57;28.17
81608;BME280;71022;48.122;11.576;2023-10-13T09:11:34;95714.09;;;26.99;28.92
81608;BME280;71022;48.122;11.576;2023-10-13T09:14:17;95708.34;;;27.24;26.97
81608;BME280;71022;48.122;11.576;2023-10-13T09:17:02;95705.34;;;26.97;26.14
81608;BME280;71022;48.122;11.576;2023-10-13T09:19:48;95705.19;;;27.22;25.97
81608;BME280;71022;48.122;11.576;2023-10-13T09:22:23;95709.16;;;27.46;25.69
81608;BME280;71022;48.122;11.576;2023-10-13T09:25:03;95699.66;;;27.40;25.42
81608;BME280;71022;48.122;11.576;2023-10-13T09:27:40;95695.88;;;27.34;25.38
81608;BME280;71022;48.122;11.576;2023-10-13T09:30:08;95695.25;;;27.30;25.14
81608;BME280;71022;48.122;11.576;2023-10-13T09:33:01;95701.34;;;27.50;23.78
81608;BME280;71022;48.122;11.576;2023-10-13T09:35:30;95699.69;;;27.62;23.33
81608;BME280;71022;48.122;11.576;2023-10-13T09:38:01;95701.31;;;27.81;24.08
81608;BME280;71022;48.122;11.576;2023-10-13T09:40:31;95692.41;;;27.82;23.41
81608;BME280;71022;48.122;11.576;2023-10-13T09:43:13;95698.50;;;28.12;23.68
81608;BME280;71022;48.122;11.576;2023-10-13T09:45:49;95698.13;;;28.00;23.55
81608;BME280;71022;48.122;11.576;2023-10-13T09:48:45;95694.06;;;28.01;23.76
81608;BME280;71022;48.122;11.576;2023-10-13T09:51:17;95685.56;;;27.92;23.08
81608;BME280;71022;48.122;11.576;2023-10-13T09:56:50;95680.94;;;27.03;23.55
81608;BME280;71022;48.122;11.576;2023-10-13T09:59:29;95674.38;;;27.06;23.11
81608;BME280;71022;48.122;11.576;2023-10-13T10:02:05;95677.50;;;26.86;23.39
81608;BME280;71022;48.122;11.576;2023-10-13T10:04:36;95669.59;;;26.59;23.25
81608;BME280;71022;48.122;11.576;2023-10-13T10:07:25;95674.72;;;26.39;22.97
81608;BME280;71022;48.122;11.576;2023-10-13T10:09:56;95668.34;;;26.01;24.35
81608;BME280;71022;48.122;11.576;2023-10-13T10:12:38;95678.97;;;25.71;25.25
81608;BME280;71022;48.122;11.576;2023-10-13T10:15:25;95678.56;;;25.44;26.16
81608;BME280;71022;48.122;11.576;2023-10-13T10:18:03;95673.47;;;25.39;25.55
81608;BME280;71022;48.122;11.576;2023-10-13T10:20:33;95663.56;;;25.22;26.70
81608;BME280;71022;48.122;11.576;2023-10-13T10:23:24;95666.25;;;25.13;25.76
81608;BME280;71022;48.122;11.576;2023-10-13T10:25:51;95656.88;;;25.03;26.54
81608;BME280;71022;48.122;11.576;2023-10-13T10:28:19;95655.09;;;24.97;26.59
81608;BME280;71022;48.122;11.576;2023-10-13T10:30:47;95654.28;;;24.96;27.30
81608;BME280;71022;48.122;11.576;2023-10-13T10:33:14;95646.66;;;24.97;27.32
81608;BME280;71022;48.122;11.576;2023-10-13T10:35:46;95643.97;;;25.06;24.63
81608;BME280;71022;48.122;11.576;2023-10-13T10:38:15;95638.56;;;24.99;24.37
81608;BME280;71022;48.122;11.576;2023-10-13T10:41:06;95636.31;;;25.06;24.58
81608;BME280;71022;48.122;11.576;2023-10-13T10:48:44;95625.53;;;25.05;25.06
81608;BME280;71022;48.122;11.576;2023-10-13T10:51:13;95617.00;;;25.21;24.25
81608;BME280;71022;48.122;11.576;2023-10-13T10:53:42;95612.41;;;25.14;24.17
81608;BME280;71022;48.122;11.576;2023-10-13T10:56:14;95612.25;;;25.18;23.89
81608;BME280;71022;48.122;11.576;2023-10-13T10:58:50;95608.34;;;25.28;23.42
81608;BME280;71022;48.122;11.576;2023-10-13T11:04:08;95595.88;;;25.29;23.48
81608;BME280;71022;48.122;11.576;2023-10-13T11:06:36;95592.81;;;25.36;23.34
81608;BME280;71022;48.122;11.576;2023-10-13T11:09:09;95589.00;;;25.43;22.43
81608;BME280;71022;48.122;11.576;2023-10-13T11:11:46;95586.66;;;25.66;22.47
81608;BME280;71022;48.122;11.576;2023-10-13T11:14:29;95585.91;;;25.53;22.60
81608;BME280;71022;48.122;11.576;2023-10-13T11:16:57;95576.97;;;25.67;21.85
81608;BME280;71022;48.122;11.576;2023-10-13T11:19:35;95568.22;;;25.65;21.65
81608;BME280;71022;48.122;11.576;2023-10-13T11:22:17;95571.34;;;25.67;22.24
81608;BME280;71022;48.122;11.576;2023-10-13T11:24:56;95570.25;;;25.65;22.14
81608;BME280;71022;48.122;11.576;2023-10-13T11:27:30;95564.16;;;25.66;22.85
81608;BME280;71022;48.122;11.576;2023-10-13T11:30:25;95557.63;;;25.69;22.76
81608;BME280;71022;48.122;11.576;2023-10-13T11:33:01;95552.66;;;25.73;23.20
81608;BME280;71022;48.122;11.576;2023-10-13T11:35:37;95562.44;;;25.81;23.29
81608;BME280;71022;48.122;11.576;2023-10-13T11:38:36;95545.47;;;25.72;22.27
81608;BME280;71022;48.122;11.576;2023-10-13T11:41:16;95541.09;;;25.71;22.51
81608;BME280;71022;48.122;11.576;2023-10-13T11:43:48;95537.50;;;25.71;22.43
81608;BME280;71022;48.122;11.576;2023-10-13T11:46:20;95535.56;;;25.80;22.69
81608;BME280;71022;48.122;11.576;2023-10-13T11:49:08;95530.56;;;25.84;22.75
81608;BME280;71022;48.122;11.576;2023-10-13T11:51:54;95533.59;;;25.90;22.58
81608;BME280;71022;48.122;11.576;2023-10-13T11:54:29;95525.25;;;25.86;22.20
81608;BME280;71022;48.122;11.576;2023-10-13T11:56:56;95517.91;;;26.02;22.78
81608;BME280;71022;48.122;11.576;2023-10-13T11:59:27;95522.38;;;26.12;22.59
81608;BME280;71022;48.122;11.576;2023-10-13T12:01:55;95503.00;;;26.14;21.98
81608;BME280;71022;48.122;11.576;2023-10-13T12:04:38;95509.63;;;26.20;22.43
81608;BME280;71022;48.122;11.576;2023-10-13T12:07:18;95505.41;;;26.15;22.91
81608;BME280;71022;48.122;11.576;2023-10-13T12:09:54;95502.84;;;26.30;22.44
81608;BME280;71022;48.122;11.576;2023-10-13T12:12:25;95502.53;;;26.28;22.51
81608;BME280;71022;48.122;11.576;2023-10-13T12:14:53;95491.25;;;26.28;22.18
81608;BME280;71022;48.122;11.576;2023-10-13T12:17:30;95490.34;;;26.31;22.67
81608;BME280;71022;48.122;11.576;2023-10-13T12:20:07;95490.59;;;26.24;22.33
81608;BME280;71022;48.122;11.576;2023-10-13T12:22:38;95487.19;;;26.29;23.15
81608;BME280;71022;48.122;11.576;2023-10-13T12:25:06;95478.16;;;26.34;22.65
81608;BME280;71022;48.122;11.576;2023-10-13T12:27:53;95479.72;;;26.35;22.05
81608;BME280;71022;48.122;11.576;2023-10-13T12:30:25;95471.47;;;26.40;21.87
81608;BME280;71022;48.122;11.576;2023-10-13T12:33:11;95475.00;;;26.54;21.72
81608;BME280;71022;48.122;11.576;2023-10-13T12:35:42;95469.22;;;26.57;21.57
81608;BME280;71022;48.122;11.576;2023-10-13T12:38:30;95467.59;;;26.47;22.32
81608;BME280;71022;48.122;11.576;2023-10-13T12:41:26;95462.56;;;26.42;21.96
81608;BME280;71022;48.122;11.576;2023-10-13T12:44:13;95461.91;;;26.38;22.15
81608;BME280;71022;48.122;11.576;2023-10-13T12:47:07;95451.78;;;26.50;21.20
81608;BME280;71022;48.122;11.576;2023-10-13T12:50:07;95451.97;;;26.46;21.82
81608;BME280;71022;48.122;11.576;2023-10-13T12:52:43;95452.00;;;26.55;22.02
81608;BME280;71022;48.122;11.576;2023-10-13T12:55:15;95440.69;;;26.46;21.60
81608;BME280;71022;48.122;11.576;2023-10-13T12:57:49;95433.47;;;26.45;22.32
81608;BME280;71022;48.122;11.576;2023-10-13T13:00:21;95420.91;;;26.37;22.14
81608;BME280;71022;48.122;11.576;2023-10-13T13:02:54;95427.38;;;26.47;21.90
81608;BME280;71022;48.122;11.576;2023-10-13T13:05:33;95430.72;;;26.54;21.86
81608;BME280;71022;48.122;11.576;2023-10-13T13:08:12;95418.22;;;26.55;21.80
81608;BME280;71022;48.122;11.576;2023-10-13T13:10:54;95419.44;;;26.54;21.81
81608;BME280;71022;48.122;11.576;2023-10-13T13:13:32;95410.69;;;26.52;22.49
81608;BME280;71022;48.122;11.576;2023-10-13T13:16:01;95416.66;;;26.63;21.97
81608;BME280;71022;48.122;11.576;2023-10-13T13:18:34;95411.97;;;26.60;21.71
81608;BME280;71022;48.122;11.576;2023-10-13T13:21:07;95400.16;;;26.53;21.67
81608;BME280;71022;48.122;11.576;2023-10-13T13:23:41;95407.59;;;26.68;21.21
81608;BME280;71022;48.122;11.576;2023-10-13T13:26:24;95387.78;;;26.50;21.23
81608;BME280;71022;48.122;11.576;2023-10-13T13:28:58;95390.56;;;26.41;21.84
81608;BME280;71022;48.122;11.576;2023-10-13T13:31:33;95390.13;;;26.43;21.99
81608;BME280;71022;48.122;11.576;2023-10-13T13:34:12;95382.41;;;26.34;22.65
81608;BME280;71022;48.122;11.576;2023-10-13T13:36:42;95386.03;;;26.44;22.30
81608;BME280;71022;48.122;11.576;2023-10-13T13:39:22;95377.75;;;26.40;23.03
81608;BME280;71022;48.122;11.576;2023-10-13T13:42:02;95371.41;;;26.27;21.67
81608;BME280;71022;48.122;11.576;2023-10-13T13:44:30;95367.94;;;26.23;22.03
81608;BME280;71022;48.122;11.576;2023-10-13T13:47:07;95379.38;;;26.28;22.21
81608;BME280;71022;48.122;11.576;2023-10-13T13:49:46;95363.56;;;26.22;22.35
81608;BME280;71022;48.122;11.576;2023-10-13T13:52:22;95351.66;;;26.18;22.51
81608;BME280;71022;48.122;11.576;2023-10-13T13:55:06;95364.50;;;26.19;23.53
81608;BME280;71022;48.122;11.576;2023-10-13T14:00:19;95358.66;;;26.13;22.95
81608;BME280;71022;48.122;11.576;2023-10-13T14:03:43;95353.72;;;26.05;23.17
81608;BME280;71022;48.122;11.576;2023-10-13T14:06:38;95350.84;;;25.96;23.15
81608;BME280;71022;48.122;11.576;2023-10-13T14:09:09;95344.66;;;26.01;22.68
81608;BME280;71022;48.122;11.576;2023-10-13T14:12:26;95342.75;;;25.98;22.73
81608;BME280;71022;48.122;11.576;2023-10-13T14:15:22;95339.59;;;25.96;22.17
81608;BME280;71022;48.122;11.576;2023-10-13T14:17:58;95348.38;;;25.98;22.64
81608;BME280;71022;48.122;11.576;2023-10-13T14:20:34;95334.75;;;25.96;22.78
81608;BME280;71022;48.122;11.576;2023-10-13T14:23:09;95333.78;;;25.90;22.98
81608;BME280;71022;48.122;11.576;2023-10-13T14:25:48;95331.69;;;25.81;23.39
81608;BME280;71022;48.122;11.576;2023-10-13T14:28:31;95325.28;;;25.81;22.82
81608;BME280;71022;48.122;11.576;2023-10-13T14:31:12;95323.00;;;25.89;22.48
81608;BME280;71022;48.122;11.576;2023-10-13T14:33:48;95323.38;;;26.00;21.67
81608;BME280;71022;48.122;11.576;2023-10-13T14:36:17;95316.75;;;25.94;22.25
81608;BME280;71022;48.122;11.576;2023-10-13T14:38:47;95317.38;;;25.89;23.08
81608;BME280;71022;48.122;11.576;2023-10-13T14:41:20;95314.94;;;25.78;22.16
81608;BME280;71022;48.122;11.576;2023-10-13T14:43:48;95308.34;;;25.72;23.81
81608;BME280;71022;48.122;11.576;2023-10-13T14:46:18;95309.41;;;25.65;23.97
81608;BME280;71022;48.122;11.576;2023-10-13T14:48:55;95313.72;;;25.57;23.98